sensor_id;sensor_type;location;lat;lon;timestamp;P1;durP1;ratioP1;P2;durP2;ratioP2
72584;SDS011;60618;40.084;32.908;2022-08-25T00:01:45;12.47;;;5.70;;
72584;SDS011;60618;40.084;32.908;2022-08-25T00:04:24;11.85;;;5.50;;
72584;SDS011;60618;40.084;32.908;2022-08-25T00:06:52;15.60;;;6.40;;
72584;SDS011;60618;40.084;32.908;2022-08-25T00:09:20;11.60;;;6.15;;
72584;SDS011;60618;40.084;32.908;2022-08-25T00:11:50;11.65;;;6.20;;
72584;SDS011;60618;40.084;32.908;2022-08-25T00:14:21;13.50;;;6.27;;
72584;SDS011;60618;40.084;32.908;2022-08-25T00:16:51;12.75;;;6.25;;
72584;SDS011;60618;40.084;32.908;2022-08-25T00:19:23;15.82;;;7.20;;
72584;SDS011;60618;40.084;32.908;2022-08-25T00:21:53;12.65;;;6.20;;
72584;SDS011;60618;40.084;32.908;2022-08-25T00:24:21;16.65;;;6.75;;
72584;SDS011;60618;40.084;32.908;2022-08-25T00:26:49;14.63;;;6.70;;
72584;SDS011;60618;40.084;32.908;2022-08-25T00:29:21;14.95;;;6.60;;
72584;SDS011;60618;40.084;32.908;2022-08-25T00:31:48;15.77;;;6.75;;
72584;SDS011;60618;40.084;32.908;2022-08-25T00:34:17;13.43;;;6.57;;
72584;SDS011;60618;40.084;32.908;2022-08-25T00:36:46;14.18;;;7.00;;
72584;SDS011;60618;40.084;32.908;2022-08-25T00:39:14;11.87;;;6.50;;
72584;SDS011;60618;40.084;32.908;2022-08-25T00:41:41;11.95;;;6.40;;
72584;SDS011;60618;40.084;32.908;2022-08-25T00:44:10;16.35;;;7.40;;
72584;SDS011;60618;40.084;32.908;2022-08-25T00:46:42;14.35;;;6.88;;
72584;SDS011;60618;40.084;32.908;2022-08-25T00:52:10;12.43;;;6.73;;
72584;SDS011;60618;40.084;32.908;2022-08-25T00:55:24;13.27;;;6.80;;
72584;SDS011;60618;40.084;32.908;2022-08-25T00:58:05;13.00;;;6.47;;
72584;SDS011;60618;40.084;32.908;2022-08-25T01:00:38;12.10;;;6.00;;
72584;SDS011;60618;40.084;32.908;2022-08-25T01:03:09;12.18;;;6.10;;
72584;SDS011;60618;40.084;32.908;2022-08-25T01:05:36;15.30;;;6.23;;
72584;SDS011;60618;40.084;32.908;2022-08-25T01:08:05;10.55;;;5.90;;
72584;SDS011;60618;40.084;32.908;2022-08-25T01:10:35;12.15;;;5.95;;
72584;SDS011;60618;40.084;32.908;2022-08-25T01:13:11;12.25;;;6.18;;
72584;SDS011;60618;40.084;32.908;2022-08-25T01:15:42;11.93;;;6.15;;
72584;SDS011;60618;40.084;32.908;2022-08-25T01:18:10;14.07;;;6.33;;
72584;SDS011;60618;40.084;32.908;2022-08-25T01:20:37;12.05;;;5.82;;
72584;SDS011;60618;40.084;32.908;2022-08-25T01:23:05;12.48;;;6.15;;
72584;SDS011;60618;40.084;32.908;2022-08-25T01:25:49;14.07;;;6.10;;
72584;SDS011;60618;40.084;32.908;2022-08-25T01:28:36;12.77;;;6.40;;
72584;SDS011;60618;40.084;32.908;2022-08-25T01:31:03;12.63;;;6.13;;
72584;SDS011;60618;40.084;32.908;2022-08-25T01:33:49;12.52;;;6.10;;
72584;SDS011;60618;40.084;32.908;2022-08-25T01:36:17;10.65;;;6.25;;
72584;SDS011;60618;40.084;32.908;2022-08-25T01:38:45;12.20;;;5.93;;
72584;SDS011;60618;40.084;32.908;2022-08-25T01:41:11;11.85;;;6.07;;
72584;SDS011;60618;40.084;32.908;2022-08-25T01:43:43;10.37;;;5.77;;
72584;SDS011;60618;40.084;32.908;2022-08-25T01:46:09;11.45;;;6.00;;
72584;SDS011;60618;40.084;32.908;2022-08-25T01:48:37;12.20;;;5.70;;
72584;SDS011;60618;40.084;32.908;2022-08-25T01:51:04;11.90;;;5.90;;
72584;SDS011;60618;40.084;32.908;2022-08-25T01:53:31;10.50;;;6.07;;
72584;SDS011;60618;40.084;32.908;2022-08-25T01:55:59;12.63;;;6.13;;
72584;SDS011;60618;40.084;32.908;2022-08-25T01:58:36;13.57;;;6.25;;
72584;SDS011;60618;40.084;32.908;2022-08-25T02:01:06;11.80;;;5.75;;
72584;SDS011;60618;40.084;32.908;2022-08-25T02:03:36;11.80;;;5.15;;
72584;SDS011;60618;40.084;32.908;2022-08-25T02:06:07;14.65;;;6.20;;
72584;SDS011;60618;40.084;32.908;2022-08-25T02:08:40;11.60;;;5.77;;
72584;SDS011;60618;40.084;32.908;2022-08-25T02:11:11;11.07;;;5.88;;
72584;SDS011;60618;40.084;32.908;2022-08-25T02:13:40;12.55;;;6.03;;
72584;SDS011;60618;40.084;32.908;2022-08-25T02:16:08;12.27;;;6.03;;
72584;SDS011;60618;40.084;32.908;2022-08-25T02:18:40;11.55;;;6.07;;
72584;SDS011;60618;40.084;32.908;2022-08-25T02:21:07;11.67;;;6.13;;
72584;SDS011;60618;40.084;32.908;2022-08-25T02:23:34;12.80;;;5.82;;
72584;SDS011;60618;40.084;32.908;2022-08-25T02:26:01;12.43;;;5.97;;
72584;SDS011;60618;40.084;32.908;2022-08-25T02:28:30;11.40;;;5.93;;
72584;SDS011;60618;40.084;32.908;2022-08-25T02:30:57;12.93;;;5.70;;
72584;SDS011;60618;40.084;32.908;2022-08-25T02:33:27;13.17;;;5.80;;
72584;SDS011;60618;40.084;32.908;2022-08-25T02:35:56;12.13;;;6.30;;
72584;SDS011;60618;40.084;32.908;2022-08-25T02:38:26;13.35;;;6.55;;
72584;SDS011;60618;40.084;32.908;2022-08-25T02:40:54;12.90;;;6.10;;
72584;SDS011;60618;40.084;32.908;2022-08-25T02:43:22;14.23;;;6.50;;
72584;SDS011;60618;40.084;32.908;2022-08-25T02:45:49;12.33;;;5.50;;
72584;SDS011;60618;40.084;32.908;2022-08-25T02:48:16;12.20;;;5.72;;
72584;SDS011;60618;40.084;32.908;2022-08-25T02:50:46;12.13;;;5.72;;
72584;SDS011;60618;40.084;32.908;2022-08-25T02:53:14;8.98;;;4.97;;
72584;SDS011;60618;40.084;32.908;2022-08-25T02:55:40;11.23;;;5.68;;
72584;SDS011;60618;40.084;32.908;2022-08-25T02:58:07;9.67;;;5.73;;
72584;SDS011;60618;40.084;32.908;2022-08-25T03:00:34;10.73;;;5.80;;
72584;SDS011;60618;40.084;32.908;2022-08-25T03:03:02;13.38;;;6.20;;
72584;SDS011;60618;40.084;32.908;2022-08-25T03:05:30;11.32;;;5.65;;
72584;SDS011;60618;40.084;32.908;2022-08-25T03:07:57;14.38;;;6.53;;
72584;SDS011;60618;40.084;32.908;2022-08-25T03:10:25;11.23;;;5.73;;
72584;SDS011;60618;40.084;32.908;2022-08-25T03:12:52;11.43;;;5.63;;
72584;SDS011;60618;40.084;32.908;2022-08-25T03:15:19;12.30;;;5.97;;
72584;SDS011;60618;40.084;32.908;2022-08-25T03:17:46;9.80;;;5.85;;
72584;SDS011;60618;40.084;32.908;2022-08-25T03:20:16;13.02;;;6.70;;
72584;SDS011;60618;40.084;32.908;2022-08-25T03:22:43;13.57;;;6.60;;
72584;SDS011;60618;40.084;32.908;2022-08-25T03:25:10;11.20;;;6.40;;
72584;SDS011;60618;40.084;32.908;2022-08-25T03:27:37;12.27;;;6.20;;
72584;SDS011;60618;40.084;32.908;2022-08-25T03:30:04;11.77;;;6.53;;
72584;SDS011;60618;40.084;32.908;2022-08-25T03:32:32;10.27;;;6.00;;
72584;SDS011;60618;40.084;32.908;2022-08-25T03:34:59;11.87;;;6.10;;
72584;SDS011;60618;40.084;32.908;2022-08-25T03:37:26;14.38;;;6.13;;
72584;SDS011;60618;40.084;32.908;2022-08-25T03:39:53;10.15;;;5.80;;
72584;SDS011;60618;40.084;32.908;2022-08-25T03:42:20;10.82;;;5.50;;
72584;SDS011;60618;40.084;32.908;2022-08-25T03:44:46;9.82;;;4.63;;
72584;SDS011;60618;40.084;32.908;2022-08-25T03:47:13;8.60;;;4.13;;
72584;SDS011;60618;40.084;32.908;2022-08-25T03:49:40;11.27;;;5.15;;
72584;SDS011;60618;40.084;32.908;2022-08-25T03:52:07;8.57;;;4.90;;
72584;SDS011;60618;40.084;32.908;2022-08-25T03:54:34;9.82;;;5.10;;
72584;SDS011;60618;40.084;32.908;2022-08-25T03:57:01;10.13;;;6.03;;
72584;SDS011;60618;40.084;32.908;2022-08-25T03:59:28;12.87;;;7.07;;
72584;SDS011;60618;40.084;32.908;2022-08-25T04:01:55;15.82;;;6.78;;
72584;SDS011;60618;40.084;32.908;2022-08-25T04:04:22;12.32;;;7.07;;
72584;SDS011;60618;40.084;32.908;2022-08-25T04:06:49;10.63;;;5.88;;
72584;SDS011;60618;40.084;32.908;2022-08-25T04:09:16;14.80;;;6.38;;
72584;SDS011;60618;40.084;32.908;2022-08-25T04:11:43;13.00;;;6.27;;
72584;SDS011;60618;40.084;32.908;2022-08-25T04:14:10;13.18;;;6.47;;
72584;SDS011;60618;40.084;32.908;2022-08-25T04:16:42;9.95;;;5.75;;
72584;SDS011;60618;40.084;32.908;2022-08-25T04:19:09;10.45;;;5.88;;
72584;SDS011;60618;40.084;32.908;2022-08-25T04:21:37;9.32;;;5.75;;
72584;SDS011;60618;40.084;32.908;2022-08-25T04:24:06;12.93;;;6.00;;
72584;SDS011;60618;40.084;32.908;2022-08-25T04:26:35;11.45;;;5.90;;
72584;SDS011;60618;40.084;32.908;2022-08-25T04:29:06;12.98;;;5.82;;
72584;SDS011;60618;40.084;32.908;2022-08-25T04:31:34;10.15;;;5.90;;
72584;SDS011;60618;40.084;32.908;2022-08-25T04:34:04;13.55;;;6.18;;
72584;SDS011;60618;40.084;32.908;2022-08-25T04:36:51;12.50;;;5.90;;
72584;SDS011;60618;40.084;32.908;2022-08-25T04:39:19;12.52;;;5.93;;
72584;SDS011;60618;40.084;32.908;2022-08-25T04:41:47;10.77;;;5.78;;
72584;SDS011;60618;40.084;32.908;2022-08-25T04:44:14;13.70;;;6.72;;
72584;SDS011;60618;40.084;32.908;2022-08-25T04:46:41;14.02;;;7.38;;
72584;SDS011;60618;40.084;32.908;2022-08-25T04:49:09;15.67;;;6.80;;
72584;SDS011;60618;40.084;32.908;2022-08-25T04:51:36;13.13;;;7.32;;
72584;SDS011;60618;40.084;32.908;2022-08-25T04:54:06;14.85;;;6.90;;
72584;SDS011;60618;40.084;32.908;2022-08-25T04:56:41;11.70;;;6.40;;
72584;SDS011;60618;40.084;32.908;2022-08-25T04:59:09;11.25;;;6.00;;
72584;SDS011;60618;40.084;32.908;2022-08-25T05:01:38;12.10;;;6.53;;
72584;SDS011;60618;40.084;32.908;2022-08-25T05:04:07;13.13;;;5.93;;
72584;SDS011;60618;40.084;32.908;2022-08-25T05:06:53;9.23;;;5.70;;
72584;SDS011;60618;40.084;32.908;2022-08-25T05:09:20;9.65;;;5.68;;
72584;SDS011;60618;40.084;32.908;2022-08-25T05:11:47;10.23;;;6.30;;
72584;SDS011;60618;40.084;32.908;2022-08-25T05:14:14;11.83;;;6.27;;
72584;SDS011;60618;40.084;32.908;2022-08-25T05:16:41;12.77;;;6.07;;
72584;SDS011;60618;40.084;32.908;2022-08-25T05:19:08;10.98;;;5.57;;
72584;SDS011;60618;40.084;32.908;2022-08-25T05:21:35;12.60;;;6.40;;
72584;SDS011;60618;40.084;32.908;2022-08-25T05:24:02;12.45;;;6.43;;
72584;SDS011;60618;40.084;32.908;2022-08-25T05:26:31;10.93;;;5.80;;
72584;SDS011;60618;40.084;32.908;2022-08-25T05:29:00;9.82;;;6.60;;
72584;SDS011;60618;40.084;32.908;2022-08-25T05:31:29;11.18;;;6.40;;
72584;SDS011;60618;40.084;32.908;2022-08-25T05:33:57;12.32;;;6.28;;
72584;SDS011;60618;40.084;32.908;2022-08-25T05:36:24;12.68;;;6.80;;
72584;SDS011;60618;40.084;32.908;2022-08-25T05:38:52;13.20;;;6.80;;
72584;SDS011;60618;40.084;32.908;2022-08-25T05:41:20;15.00;;;6.97;;
72584;SDS011;60618;40.084;32.908;2022-08-25T05:43:50;14.27;;;6.75;;
72584;SDS011;60618;40.084;32.908;2022-08-25T05:46:18;13.70;;;6.53;;
72584;SDS011;60618;40.084;32.908;2022-08-25T05:48:46;13.15;;;7.00;;
72584;SDS011;60618;40.084;32.908;2022-08-25T05:51:14;12.70;;;6.13;;
72584;SDS011;60618;40.084;32.908;2022-08-25T05:53:42;11.70;;;6.15;;
72584;SDS011;60618;40.084;32.908;2022-08-25T05:56:11;12.10;;;6.50;;
72584;SDS011;60618;40.084;32.908;2022-08-25T05:58:38;11.80;;;6.10;;
72584;SDS011;60618;40.084;32.908;2022-08-25T06:01:07;13.73;;;5.97;;
72584;SDS011;60618;40.084;32.908;2022-08-25T06:03:35;13.90;;;6.07;;
72584;SDS011;60618;40.084;32.908;2022-08-25T06:06:05;11.80;;;6.63;;
72584;SDS011;60618;40.084;32.908;2022-08-25T06:08:33;13.05;;;6.45;;
72584;SDS011;60618;40.084;32.908;2022-08-25T06:11:01;11.00;;;6.40;;
72584;SDS011;60618;40.084;32.908;2022-08-25T06:13:27;12.27;;;6.20;;
72584;SDS011;60618;40.084;32.908;2022-08-25T06:15:58;11.47;;;6.07;;
72584;SDS011;60618;40.084;32.908;2022-08-25T06:18:26;13.00;;;6.45;;
72584;SDS011;60618;40.084;32.908;2022-08-25T06:20:53;12.07;;;6.90;;
72584;SDS011;60618;40.084;32.908;2022-08-25T06:23:20;14.15;;;6.22;;
72584;SDS011;60618;40.084;32.908;2022-08-25T06:25:50;12.60;;;6.18;;
72584;SDS011;60618;40.084;32.908;2022-08-25T06:28:18;12.23;;;6.43;;
72584;SDS011;60618;40.084;32.908;2022-08-25T06:30:46;12.68;;;6.53;;
72584;SDS011;60618;40.084;32.908;2022-08-25T06:33:13;11.52;;;6.60;;
72584;SDS011;60618;40.084;32.908;2022-08-25T06:35:41;10.32;;;5.50;;
72584;SDS011;60618;40.084;32.908;2022-08-25T06:38:09;16.00;;;7.78;;
72584;SDS011;60618;40.084;32.908;2022-08-25T06:40:36;11.70;;;6.60;;
72584;SDS011;60618;40.084;32.908;2022-08-25T06:43:03;11.25;;;7.38;;
72584;SDS011;60618;40.084;32.908;2022-08-25T06:45:30;14.20;;;8.20;;
72584;SDS011;60618;40.084;32.908;2022-08-25T06:47:57;13.98;;;7.50;;
72584;SDS011;60618;40.084;32.908;2022-08-25T06:50:24;15.57;;;8.27;;
72584;SDS011;60618;40.084;32.908;2022-08-25T06:52:51;10.97;;;7.03;;
72584;SDS011;60618;40.084;32.908;2022-08-25T06:55:18;13.15;;;6.90;;
72584;SDS011;60618;40.084;32.908;2022-08-25T06:57:45;11.90;;;6.35;;
72584;SDS011;60618;40.084;32.908;2022-08-25T07:00:12;11.93;;;6.07;;
72584;SDS011;60618;40.084;32.908;2022-08-25T07:02:39;13.68;;;7.30;;
72584;SDS011;60618;40.084;32.908;2022-08-25T07:05:07;13.17;;;7.50;;
72584;SDS011;60618;40.084;32.908;2022-08-25T07:07:38;11.48;;;6.85;;
72584;SDS011;60618;40.084;32.908;2022-08-25T07:10:09;12.02;;;6.93;;
72584;SDS011;60618;40.084;32.908;2022-08-25T07:12:37;15.23;;;7.68;;
72584;SDS011;60618;40.084;32.908;2022-08-25T07:15:04;10.63;;;6.63;;
72584;SDS011;60618;40.084;32.908;2022-08-25T07:17:47;12.47;;;6.13;;
72584;SDS011;60618;40.084;32.908;2022-08-25T07:20:15;14.38;;;6.70;;
72584;SDS011;60618;40.084;32.908;2022-08-25T07:22:44;11.50;;;6.35;;
72584;SDS011;60618;40.084;32.908;2022-08-25T07:25:12;10.82;;;6.20;;
72584;SDS011;60618;40.084;32.908;2022-08-25T07:27:42;12.43;;;6.50;;
72584;SDS011;60618;40.084;32.908;2022-08-25T07:30:09;12.43;;;6.20;;
72584;SDS011;60618;40.084;32.908;2022-08-25T07:35:15;12.40;;;6.53;;
72584;SDS011;60618;40.084;32.908;2022-08-25T07:37:48;12.60;;;6.72;;
72584;SDS011;60618;40.084;32.908;2022-08-25T07:40:20;11.20;;;6.30;;
72584;SDS011;60618;40.084;32.908;2022-08-25T07:42:55;13.50;;;6.30;;
72584;SDS011;60618;40.084;32.908;2022-08-25T07:45:26;11.82;;;7.13;;
72584;SDS011;60618;40.084;32.908;2022-08-25T07:47:56;11.07;;;6.80;;
72584;SDS011;60618;40.084;32.908;2022-08-25T07:50:28;12.63;;;6.50;;
72584;SDS011;60618;40.084;32.908;2022-08-25T07:52:56;12.18;;;7.03;;
72584;SDS011;60618;40.084;32.908;2022-08-25T07:55:24;13.87;;;6.67;;
72584;SDS011;60618;40.084;32.908;2022-08-25T07:57:52;11.13;;;6.65;;
72584;SDS011;60618;40.084;32.908;2022-08-25T08:00:22;11.52;;;5.93;;
72584;SDS011;60618;40.084;32.908;2022-08-25T08:02:50;14.43;;;6.82;;
72584;SDS011;60618;40.084;32.908;2022-08-25T08:05:18;10.50;;;6.93;;
72584;SDS011;60618;40.084;32.908;2022-08-25T08:07:49;14.07;;;7.07;;
72584;SDS011;60618;40.084;32.908;2022-08-25T08:10:16;13.75;;;7.32;;
72584;SDS011;60618;40.084;32.908;2022-08-25T08:13:03;10.70;;;6.45;;
72584;SDS011;60618;40.084;32.908;2022-08-25T08:15:33;11.80;;;7.30;;
72584;SDS011;60618;40.084;32.908;2022-08-25T08:18:00;14.65;;;7.32;;
72584;SDS011;60618;40.084;32.908;2022-08-25T08:20:28;13.67;;;6.83;;
72584;SDS011;60618;40.084;32.908;2022-08-25T08:23:06;12.40;;;6.80;;
72584;SDS011;60618;40.084;32.908;2022-08-25T08:25:33;14.32;;;6.47;;
72584;SDS011;60618;40.084;32.908;2022-08-25T08:28:00;16.10;;;7.25;;
72584;SDS011;60618;40.084;32.908;2022-08-25T08:30:27;10.60;;;5.65;;
72584;SDS011;60618;40.084;32.908;2022-08-25T08:32:54;13.13;;;7.20;;
72584;SDS011;60618;40.084;32.908;2022-08-25T08:35:41;10.55;;;6.40;;
72584;SDS011;60618;40.084;32.908;2022-08-25T08:38:08;12.88;;;7.38;;
72584;SDS011;60618;40.084;32.908;2022-08-25T08:40:47;10.70;;;6.07;;
72584;SDS011;60618;40.084;32.908;2022-08-25T08:43:29;14.32;;;6.75;;
72584;SDS011;60618;40.084;32.908;2022-08-25T08:45:58;14.27;;;7.33;;
72584;SDS011;60618;40.084;32.908;2022-08-25T08:48:31;12.68;;;6.85;;
72584;SDS011;60618;40.084;32.908;2022-08-25T08:56:23;12.85;;;7.00;;
72584;SDS011;60618;40.084;32.908;2022-08-25T08:59:18;12.83;;;6.80;;
72584;SDS011;60618;40.084;32.908;2022-08-25T09:01:59;12.40;;;7.20;;
72584;SDS011;60618;40.084;32.908;2022-08-25T09:04:32;15.25;;;8.05;;
72584;SDS011;60618;40.084;32.908;2022-08-25T09:07:03;15.00;;;7.75;;
72584;SDS011;60618;40.084;32.908;2022-08-25T09:09:36;14.30;;;7.82;;
72584;SDS011;60618;40.084;32.908;2022-08-25T09:12:12;12.77;;;6.90;;
72584;SDS011;60618;40.084;32.908;2022-08-25T09:21:17;12.40;;;6.78;;
72584;SDS011;60618;40.084;32.908;2022-08-25T09:29:09;11.98;;;7.38;;
72584;SDS011;60618;40.084;32.908;2022-08-25T09:31:45;11.68;;;6.60;;
72584;SDS011;60618;40.084;32.908;2022-08-25T09:34:18;13.73;;;7.32;;
72584;SDS011;60618;40.084;32.908;2022-08-25T09:36:47;13.65;;;7.30;;
72584;SDS011;60618;40.084;32.908;2022-08-25T09:39:15;13.13;;;7.57;;
72584;SDS011;60618;40.084;32.908;2022-08-25T09:41:43;14.13;;;7.50;;
72584;SDS011;60618;40.084;32.908;2022-08-25T09:46:58;11.95;;;7.00;;
72584;SDS011;60618;40.084;32.908;2022-08-25T09:49:35;12.93;;;7.07;;
72584;SDS011;60618;40.084;32.908;2022-08-25T09:54:54;13.90;;;6.90;;
72584;SDS011;60618;40.084;32.908;2022-08-25T09:58:12;12.18;;;6.82;;
72584;SDS011;60618;40.084;32.908;2022-08-25T10:00:19;12.55;;;6.78;;
72584;SDS011;60618;40.084;32.908;2022-08-25T10:05:55;11.07;;;6.30;;
72584;SDS011;60618;40.084;32.908;2022-08-25T10:10:58;12.80;;;7.80;;
72584;SDS011;60618;40.084;32.908;2022-08-25T10:16:24;14.07;;;8.30;;
72584;SDS011;60618;40.084;32.908;2022-08-25T10:21:26;15.13;;;9.55;;
72584;SDS011;60618;40.084;32.908;2022-08-25T10:23:53;17.85;;;10.13;;
72584;SDS011;60618;40.084;32.908;2022-08-25T10:29:21;13.65;;;7.43;;
72584;SDS011;60618;40.084;32.908;2022-08-25T10:35:29;14.90;;;8.70;;
72584;SDS011;60618;40.084;32.908;2022-08-25T10:43:25;16.80;;;10.10;;
72584;SDS011;60618;40.084;32.908;2022-08-25T10:46:03;17.77;;;9.13;;
72584;SDS011;60618;40.084;32.908;2022-08-25T10:48:57;17.08;;;8.95;;
72584;SDS011;60618;40.084;32.908;2022-08-25T10:57:04;13.20;;;8.13;;
72584;SDS011;60618;40.084;32.908;2022-08-25T10:59:56;15.20;;;8.83;;
72584;SDS011;60618;40.084;32.908;2022-08-25T11:08:05;13.30;;;8.40;;
72584;SDS011;60618;40.084;32.908;2022-08-25T11:10:36;15.50;;;8.70;;
72584;SDS011;60618;40.084;32.908;2022-08-25T11:13:32;16.03;;;8.30;;
72584;SDS011;60618;40.084;32.908;2022-08-25T11:16:13;13.95;;;7.47;;
72584;SDS011;60618;40.084;32.908;2022-08-25T11:18:47;11.73;;;7.07;;
72584;SDS011;60618;40.084;32.908;2022-08-25T11:21:25;12.88;;;6.70;;
72584;SDS011;60618;40.084;32.908;2022-08-25T11:26:50;13.83;;;7.07;;
72584;SDS011;60618;40.084;32.908;2022-08-25T11:29:20;14.27;;;7.60;;
72584;SDS011;60618;40.084;32.908;2022-08-25T11:31:55;14.05;;;7.70;;
72584;SDS011;60618;40.084;32.908;2022-08-25T11:34:26;16.20;;;8.88;;
72584;SDS011;60618;40.084;32.908;2022-08-25T11:37:02;15.85;;;8.55;;
72584;SDS011;60618;40.084;32.908;2022-08-25T11:45:10;14.55;;;8.43;;
72584;SDS011;60618;40.084;32.908;2022-08-25T11:50:54;17.50;;;9.57;;
72584;SDS011;60618;40.084;32.908;2022-08-25T11:53:39;11.70;;;7.90;;
72584;SDS011;60618;40.084;32.908;2022-08-25T11:56:12;13.45;;;7.80;;
72584;SDS011;60618;40.084;32.908;2022-08-25T11:59:00;14.20;;;8.63;;
72584;SDS011;60618;40.084;32.908;2022-08-25T12:09:32;12.32;;;7.40;;
72584;SDS011;60618;40.084;32.908;2022-08-25T12:12:29;14.50;;;7.22;;
72584;SDS011;60618;40.084;32.908;2022-08-25T12:29:24;15.48;;;7.72;;
72584;SDS011;60618;40.084;32.908;2022-08-25T12:37:55;13.32;;;7.80;;
72584;SDS011;60618;40.084;32.908;2022-08-25T12:40:52;11.48;;;7.00;;
72584;SDS011;60618;40.084;32.908;2022-08-25T12:43:25;12.18;;;7.72;;
72584;SDS011;60618;40.084;32.908;2022-08-25T12:51:22;16.58;;;7.60;;
72584;SDS011;60618;40.084;32.908;2022-08-25T12:56:45;12.35;;;7.03;;
72584;SDS011;60618;40.084;32.908;2022-08-25T12:59:17;12.77;;;6.47;;
72584;SDS011;60618;40.084;32.908;2022-08-25T13:16:16;10.87;;;6.63;;
72584;SDS011;60618;40.084;32.908;2022-08-25T13:18:45;11.20;;;6.88;;
72584;SDS011;60618;40.084;32.908;2022-08-25T13:21:22;12.07;;;6.43;;
72584;SDS011;60618;40.084;32.908;2022-08-25T13:24:08;11.52;;;6.00;;
72584;SDS011;60618;40.084;32.908;2022-08-25T13:26:42;11.93;;;6.15;;
72584;SDS011;60618;40.084;32.908;2022-08-25T13:29:30;10.67;;;6.40;;
72584;SDS011;60618;40.084;32.908;2022-08-25T13:32:06;16.02;;;7.13;;
72584;SDS011;60618;40.084;32.908;2022-08-25T13:34:40;11.65;;;7.22;;
72584;SDS011;60618;40.084;32.908;2022-08-25T13:37:09;14.38;;;6.97;;
72584;SDS011;60618;40.084;32.908;2022-08-25T13:39:41;10.95;;;6.20;;
72584;SDS011;60618;40.084;32.908;2022-08-25T13:42:24;11.03;;;6.40;;
72584;SDS011;60618;40.084;32.908;2022-08-25T13:44:54;11.63;;;6.45;;
72584;SDS011;60618;40.084;32.908;2022-08-25T13:47:33;12.93;;;6.10;;
72584;SDS011;60618;40.084;32.908;2022-08-25T13:52:57;11.30;;;5.80;;
72584;SDS011;60618;40.084;32.908;2022-08-25T13:55:30;11.47;;;5.90;;
72584;SDS011;60618;40.084;32.908;2022-08-25T13:58:20;9.95;;;5.93;;
72584;SDS011;60618;40.084;32.908;2022-08-25T14:04:26;12.48;;;6.90;;
72584;SDS011;60618;40.084;32.908;2022-08-25T14:07:05;13.95;;;6.88;;
72584;SDS011;60618;40.084;32.908;2022-08-25T14:17:32;10.68;;;6.22;;
72584;SDS011;60618;40.084;32.908;2022-08-25T14:20:13;9.65;;;5.72;;
72584;SDS011;60618;40.084;32.908;2022-08-25T14:22:43;11.60;;;5.90;;
72584;SDS011;60618;40.084;32.908;2022-08-25T14:25:10;12.15;;;5.95;;
72584;SDS011;60618;40.084;32.908;2022-08-25T14:27:40;10.18;;;6.43;;
72584;SDS011;60618;40.084;32.908;2022-08-25T14:30:29;12.27;;;6.38;;
72584;SDS011;60618;40.084;32.908;2022-08-25T14:32:58;14.07;;;6.00;;
72584;SDS011;60618;40.084;32.908;2022-08-25T14:35:27;12.40;;;6.00;;
72584;SDS011;60618;40.084;32.908;2022-08-25T14:37:56;12.18;;;6.30;;
72584;SDS011;60618;40.084;32.908;2022-08-25T14:40:24;10.25;;;6.03;;
72584;SDS011;60618;40.084;32.908;2022-08-25T14:42:54;12.80;;;5.70;;
72584;SDS011;60618;40.084;32.908;2022-08-25T14:45:21;13.77;;;5.70;;
72584;SDS011;60618;40.084;32.908;2022-08-25T14:47:48;11.20;;;5.73;;
72584;SDS011;60618;40.084;32.908;2022-08-25T14:50:15;11.88;;;5.68;;
72584;SDS011;60618;40.084;32.908;2022-08-25T14:52:46;9.43;;;5.20;;
72584;SDS011;60618;40.084;32.908;2022-08-25T14:55:17;11.15;;;4.90;;
72584;SDS011;60618;40.084;32.908;2022-08-25T14:57:57;10.75;;;4.90;;
72584;SDS011;60618;40.084;32.908;2022-08-25T15:00:25;7.70;;;4.50;;
72584;SDS011;60618;40.084;32.908;2022-08-25T15:02:53;10.82;;;5.10;;
72584;SDS011;60618;40.084;32.908;2022-08-25T15:05:21;8.73;;;4.63;;
72584;SDS011;60618;40.084;32.908;2022-08-25T15:07:51;8.65;;;5.10;;
72584;SDS011;60618;40.084;32.908;2022-08-25T15:10:20;7.63;;;4.30;;
72584;SDS011;60618;40.084;32.908;2022-08-25T15:12:47;9.27;;;4.70;;
72584;SDS011;60618;40.084;32.908;2022-08-25T15:15:19;10.13;;;5.10;;
72584;SDS011;60618;40.084;32.908;2022-08-25T15:17:46;10.18;;;4.88;;
72584;SDS011;60618;40.084;32.908;2022-08-25T15:20:15;9.35;;;4.55;;
72584;SDS011;60618;40.084;32.908;2022-08-25T15:22:42;9.63;;;4.57;;
72584;SDS011;60618;40.084;32.908;2022-08-25T15:25:09;9.07;;;4.60;;
72584;SDS011;60618;40.084;32.908;2022-08-25T15:27:36;8.52;;;4.38;;
72584;SDS011;60618;40.084;32.908;2022-08-25T15:30:03;8.23;;;4.40;;
72584;SDS011;60618;40.084;32.908;2022-08-25T15:32:30;9.98;;;4.53;;
72584;SDS011;60618;40.084;32.908;2022-08-25T15:34:57;8.13;;;4.47;;
72584;SDS011;60618;40.084;32.908;2022-08-25T15:37:24;11.37;;;4.63;;
72584;SDS011;60618;40.084;32.908;2022-08-25T15:39:51;13.45;;;4.90;;
72584;SDS011;60618;40.084;32.908;2022-08-25T15:42:18;9.18;;;5.15;;
72584;SDS011;60618;40.084;32.908;2022-08-25T15:44:46;9.30;;;4.80;;
72584;SDS011;60618;40.084;32.908;2022-08-25T15:47:19;9.15;;;4.57;;
72584;SDS011;60618;40.084;32.908;2022-08-25T15:49:47;7.63;;;4.37;;
72584;SDS011;60618;40.084;32.908;2022-08-25T15:52:15;9.98;;;4.68;;
72584;SDS011;60618;40.084;32.908;2022-08-25T15:54:42;9.38;;;4.38;;
72584;SDS011;60618;40.084;32.908;2022-08-25T15:57:12;8.77;;;4.40;;
72584;SDS011;60618;40.084;32.908;2022-08-25T15:59:50;9.10;;;4.75;;
72584;SDS011;60618;40.084;32.908;2022-08-25T16:02:18;10.17;;;4.50;;
72584;SDS011;60618;40.084;32.908;2022-08-25T16:04:46;11.05;;;4.60;;
72584;SDS011;60618;40.084;32.908;2022-08-25T16:07:13;8.00;;;4.50;;
72584;SDS011;60618;40.084;32.908;2022-08-25T16:09:40;9.07;;;4.45;;
72584;SDS011;60618;40.084;32.908;2022-08-25T16:12:09;8.38;;;4.28;;
72584;SDS011;60618;40.084;32.908;2022-08-25T16:14:38;8.93;;;4.43;;
72584;SDS011;60618;40.084;32.908;2022-08-25T16:17:05;9.43;;;4.75;;
72584;SDS011;60618;40.084;32.908;2022-08-25T16:19:33;9.10;;;4.85;;
72584;SDS011;60618;40.084;32.908;2022-08-25T16:22:03;9.00;;;4.90;;
72584;SDS011;60618;40.084;32.908;2022-08-25T16:24:34;9.57;;;5.10;;
72584;SDS011;60618;40.084;32.908;2022-08-25T16:27:04;9.17;;;5.20;;
72584;SDS011;60618;40.084;32.908;2022-08-25T16:29:37;9.13;;;4.40;;
72584;SDS011;60618;40.084;32.908;2022-08-25T16:32:06;9.32;;;4.90;;
72584;SDS011;60618;40.084;32.908;2022-08-25T16:34:34;10.73;;;5.10;;
72584;SDS011;60618;40.084;32.908;2022-08-25T16:37:01;8.10;;;4.78;;
72584;SDS011;60618;40.084;32.908;2022-08-25T16:39:31;13.30;;;4.77;;
72584;SDS011;60618;40.084;32.908;2022-08-25T16:41:58;9.95;;;4.80;;
72584;SDS011;60618;40.084;32.908;2022-08-25T16:44:26;10.45;;;4.60;;
72584;SDS011;60618;40.084;32.908;2022-08-25T16:46:53;8.88;;;4.20;;
72584;SDS011;60618;40.084;32.908;2022-08-25T16:49:21;8.05;;;4.32;;
72584;SDS011;60618;40.084;32.908;2022-08-25T16:51:49;11.90;;;4.80;;
72584;SDS011;60618;40.084;32.908;2022-08-25T16:54:23;9.75;;;4.60;;
72584;SDS011;60618;40.084;32.908;2022-08-25T16:56:53;10.07;;;4.50;;
72584;SDS011;60618;40.084;32.908;2022-08-25T16:59:20;7.95;;;4.40;;
72584;SDS011;60618;40.084;32.908;2022-08-25T17:01:49;8.68;;;4.82;;
72584;SDS011;60618;40.084;32.908;2022-08-25T17:04:17;10.47;;;4.73;;